createdAt,value
2022-08-24T00:01:57.593Z,18.54
2022-08-24T00:06:58.414Z,18.50
2022-08-24T00:12:00.617Z,18.48
2022-08-24T00:17:02.262Z,18.52
2022-08-24T00:22:03.338Z,18.53
2022-08-24T00:27:06.507Z,18.48
2022-08-24T00:32:07.634Z,18.41
2022-08-24T00:37:08.386Z,18.40
2022-08-24T00:42:10.426Z,18.48
2022-08-24T00:47:16.997Z,18.49
2022-08-24T00:52:24.802Z,18.51
2022-08-24T00:57:31.514Z,18.42
2022-08-24T01:02:34.905Z,18.28
2022-08-24T01:07:37.676Z,18.34
2022-08-24T01:12:48.168Z,18.34
2022-08-24T01:18:20.389Z,18.25
2022-08-24T01:23:40.381Z,18.33
2022-08-24T01:28:43.952Z,18.40
2022-08-24T01:33:45.420Z,18.33
2022-08-24T01:38:49.133Z,18.28
2022-08-24T01:43:49.846Z,18.30
2022-08-24T01:48:50.566Z,18.30
2022-08-24T01:53:52.604Z,18.27
2022-08-24T01:58:53.664Z,18.23
2022-08-24T02:03:54.555Z,18.27
2022-08-24T02:08:58.347Z,18.22
2022-08-24T02:13:59.411Z,18.19
2022-08-24T02:19:02.204Z,18.07
2022-08-24T02:24:05.313Z,17.92
2022-08-24T02:29:06.108Z,17.93
2022-08-24T02:34:06.948Z,17.78
2022-08-24T02:39:10.050Z,17.66
2022-08-24T02:44:11.879Z,17.58
2022-08-24T02:49:12.900Z,17.51
2022-08-24T02:54:18.343Z,17.62
2022-08-24T02:59:20.665Z,17.60
2022-08-24T03:04:22.775Z,17.57
2022-08-24T03:09:24.842Z,17.44
2022-08-24T03:14:31.674Z,17.41
2022-08-24T03:19:33.245Z,17.42
2022-08-24T03:24:35.393Z,17.36
2022-08-24T03:29:36.685Z,17.34
2022-08-24T03:34:37.898Z,17.31
2022-08-24T03:39:41.066Z,17.25
2022-08-24T03:44:42.193Z,17.36
2022-08-24T03:49:43.319Z,17.31
2022-08-24T03:54:45.421Z,17.28
2022-08-24T03:59:47.518Z,17.42
2022-08-24T04:04:48.711Z,17.48
2022-08-24T04:09:50.796Z,17.48
2022-08-24T04:14:52.788Z,17.54
2022-08-24T04:19:59.408Z,17.62
2022-08-24T04:25:11.454Z,17.61
2022-08-24T04:30:15.048Z,17.65
2022-08-24T04:35:40.321Z,17.69
2022-08-24T04:40:44.560Z,17.70
2022-08-24T04:45:50.591Z,17.85
2022-08-24T04:50:51.783Z,18.00
2022-08-24T04:55:53.894Z,18.09
2022-08-24T05:00:55.429Z,18.18
2022-08-24T05:05:56.328Z,18.27
2022-08-24T05:10:58.665Z,18.44
2022-08-24T05:16:02.383Z,18.63
2022-08-24T05:21:03.317Z,18.69
2022-08-24T05:26:11.966Z,18.74
2022-08-24T05:31:15.675Z,18.94
2022-08-24T05:36:19.040Z,18.88
2022-08-24T05:41:22.635Z,18.96
2022-08-24T05:46:31.638Z,18.98
2022-08-24T05:51:33.817Z,18.92
2022-08-24T05:56:40.841Z,18.70
2022-08-24T06:01:45.334Z,18.55
2022-08-24T06:06:48.653Z,18.68
2022-08-24T06:11:51.819Z,18.73
2022-08-24T06:16:53.130Z,18.84
2022-08-24T06:21:56.441Z,18.94
2022-08-24T06:27:18.778Z,18.83
2022-08-24T06:32:19.677Z,18.77
2022-08-24T06:37:20.766Z,18.95
2022-08-24T06:42:24.842Z,19.10
2022-08-24T06:47:25.554Z,19.22
2022-08-24T06:52:34.224Z,19.35
2022-08-24T06:57:36.283Z,19.38
2022-08-24T07:02:37.482Z,19.60
2022-08-24T07:07:39.345Z,20.08
2022-08-24T07:12:41.608Z,20.64
2022-08-24T07:17:42.781Z,20.80
2022-08-24T07:22:44.761Z,21.05
2022-08-24T07:27:47.858Z,21.41
2022-08-24T07:32:49.637Z,21.57
2022-08-24T07:37:51.105Z,21.78
2022-08-24T07:42:57.970Z,21.55
2022-08-24T07:53:15.035Z,21.55
2022-08-24T07:58:20.268Z,21.94
2022-08-24T08:03:23.448Z,22.32
2022-08-24T08:08:24.790Z,22.25
2022-08-24T08:13:27.257Z,22.12
2022-08-24T08:18:28.767Z,22.22
2022-08-24T08:23:49.227Z,22.74
2022-08-24T08:29:01.039Z,22.83
2022-08-24T08:34:02.032Z,23.10
2022-08-24T08:39:03.358Z,23.28
2022-08-24T08:44:14.692Z,23.06
2022-08-24T08:49:35.199Z,22.78
2022-08-24T08:54:48.706Z,22.66
2022-08-24T09:00:10.470Z,22.86
2022-08-24T09:05:40.777Z,23.37
2022-08-24T09:10:55.603Z,23.40
2022-08-24T09:16:17.136Z,23.98
2022-08-24T09:21:46.524Z,23.82
2022-08-24T09:27:00.874Z,23.53
2022-08-24T09:32:24.947Z,23.91
2022-08-24T09:37:33.812Z,24.42
2022-08-24T09:42:55.792Z,24.66
2022-08-24T09:48:27.638Z,24.20
2022-08-24T09:53:44.657Z,24.62
2022-08-24T09:59:00.494Z,24.84
2022-08-24T10:04:12.535Z,24.94
2022-08-24T10:09:35.055Z,24.70
2022-08-24T10:14:51.283Z,25.22
2022-08-24T10:20:05.171Z,24.52
2022-08-24T10:25:28.501Z,24.63
2022-08-24T10:30:56.314Z,24.88
2022-08-24T10:36:16.308Z,25.35
2022-08-24T10:42:05.968Z,24.95
2022-08-24T10:47:16.635Z,24.84
2022-08-24T10:52:47.811Z,24.29
2022-08-24T10:58:00.741Z,24.21
2022-08-24T11:03:12.733Z,23.68
2022-08-24T11:08:22.334Z,23.73
2022-08-24T11:13:26.002Z,24.34
2022-08-24T11:18:27.687Z,24.69
2022-08-24T11:23:38.007Z,24.97
2022-08-24T11:28:41.283Z,25.23
2022-08-24T11:33:49.606Z,25.52
2022-08-24T11:39:12.809Z,25.17
2022-08-24T11:44:23.626Z,25.70
2022-08-24T11:49:35.816Z,26.29
2022-08-24T11:54:43.723Z,25.27
2022-08-24T11:59:55.004Z,25.21
2022-08-24T12:05:04.137Z,25.21
2022-08-24T12:10:21.848Z,25.23
2022-08-24T12:15:41.565Z,25.17
2022-08-24T12:20:48.145Z,25.39
2022-08-24T12:26:02.874Z,25.59
2022-08-24T12:31:10.346Z,26.45
2022-08-24T12:36:27.930Z,27.19
2022-08-24T12:41:34.397Z,27.40
2022-08-24T12:46:36.049Z,27.20
2022-08-24T12:51:53.337Z,27.44
2022-08-24T12:57:25.344Z,27.70
2022-08-24T13:02:33.556Z,28.18
2022-08-24T13:07:41.213Z,27.66
2022-08-24T13:13:09.299Z,27.17
2022-08-24T13:18:47.736Z,27.27
2022-08-24T13:23:49.404Z,27.75
2022-08-24T13:28:56.623Z,27.61
2022-08-24T13:34:00.727Z,27.67
2022-08-24T13:39:26.134Z,27.33
2022-08-24T13:44:42.417Z,27.34
2022-08-24T13:49:54.204Z,27.44
2022-08-24T13:55:10.285Z,26.97
2022-08-24T14:00:45.981Z,26.73
2022-08-24T14:05:52.064Z,26.67
2022-08-24T14:11:09.825Z,26.91
2022-08-24T14:16:48.809Z,26.72
2022-08-24T14:22:00.728Z,26.81
2022-08-24T14:27:09.162Z,26.32
2022-08-24T14:32:33.255Z,26.53
2022-08-24T14:37:51.336Z,26.57
2022-08-24T14:42:57.998Z,26.01
2022-08-24T14:48:05.775Z,25.96
2022-08-24T14:53:30.320Z,25.84
2022-08-24T14:58:42.488Z,25.83
2022-08-24T15:04:00.751Z,25.93
2022-08-24T15:09:12.475Z,25.70
2022-08-24T15:14:24.201Z,25.53
2022-08-24T15:19:47.454Z,25.64
2022-08-24T15:24:56.101Z,26.03
2022-08-24T15:29:59.557Z,26.34
2022-08-24T15:35:00.272Z,26.30
2022-08-24T15:40:04.234Z,26.63
2022-08-24T15:45:06.427Z,26.76
2022-08-24T15:50:20.399Z,27.02
2022-08-24T15:55:36.000Z,27.14
2022-08-24T16:00:55.852Z,27.37
2022-08-24T16:06:16.765Z,27.55
2022-08-24T16:11:30.335Z,27.94
2022-08-24T16:16:40.083Z,26.69
2022-08-24T16:21:51.986Z,26.56
2022-08-24T16:27:01.286Z,26.23
2022-08-24T16:32:11.055Z,26.65
2022-08-24T16:37:25.245Z,26.87
2022-08-24T16:42:30.054Z,27.06
2022-08-24T16:47:30.811Z,27.51
2022-08-24T16:52:31.574Z,28.44
2022-08-24T16:57:36.458Z,29.37
2022-08-24T17:02:37.718Z,29.92
2022-08-24T17:07:39.008Z,30.31
2022-08-24T17:12:41.063Z,30.16
2022-08-24T17:17:42.050Z,29.78
2022-08-24T17:22:42.827Z,29.59
2022-08-24T17:27:45.324Z,28.98
2022-08-24T17:32:46.228Z,28.09
2022-08-24T17:37:47.350Z,26.98
2022-08-24T17:42:51.682Z,26.42
2022-08-24T17:47:53.514Z,25.60
2022-08-24T17:52:56.251Z,24.91
2022-08-24T17:58:03.062Z,24.32
2022-08-24T18:03:04.022Z,23.94
2022-08-24T18:08:05.936Z,23.54
2022-08-24T18:13:10.070Z,23.25
2022-08-24T18:18:12.290Z,22.99
2022-08-24T18:23:13.093Z,22.65
2022-08-24T18:28:23.907Z,22.43
2022-08-24T18:33:24.792Z,22.25
2022-08-24T18:38:26.771Z,22.16
2022-08-24T18:43:29.289Z,21.97
2022-08-24T18:48:30.088Z,21.83
2022-08-24T18:53:31.169Z,21.73
2022-08-24T18:58:33.203Z,21.56
2022-08-24T19:03:34.374Z,21.49
2022-08-24T19:08:35.102Z,21.39
2022-08-24T19:13:38.452Z,21.26
2022-08-24T19:18:39.369Z,21.16
2022-08-24T19:23:41.021Z,20.99
2022-08-24T19:28:43.107Z,20.97
2022-08-24T19:33:46.788Z,20.94
2022-08-24T19:38:50.732Z,20.85
2022-08-24T19:44:23.560Z,20.80
2022-08-24T19:49:28.471Z,20.74
2022-08-24T19:54:34.136Z,20.70
2022-08-24T19:59:43.042Z,20.61
2022-08-24T20:04:43.718Z,20.57
2022-08-24T20:09:44.547Z,20.43
2022-08-24T20:14:46.778Z,20.40
2022-08-24T20:19:47.665Z,20.30
2022-08-24T20:24:48.431Z,20.19
2022-08-24T20:29:51.003Z,20.23
2022-08-24T20:34:51.725Z,20.29
2022-08-24T20:39:55.353Z,20.18
2022-08-24T20:44:57.438Z,20.02
2022-08-24T20:49:58.181Z,19.93
2022-08-24T20:54:58.960Z,19.88
2022-08-24T21:00:01.032Z,19.73
2022-08-24T21:05:01.877Z,19.73
2022-08-24T21:10:02.625Z,19.63
2022-08-24T21:15:04.961Z,19.51
2022-08-24T21:20:06.252Z,19.45
2022-08-24T21:25:09.370Z,19.45
2022-08-24T21:30:14.677Z,19.34
2022-08-24T21:35:15.565Z,19.33
2022-08-24T21:40:16.378Z,19.23
2022-08-24T21:45:18.785Z,19.11
2022-08-24T21:50:19.640Z,19.20
2022-08-24T21:55:27.718Z,19.10
2022-08-24T22:00:34.194Z,19.01
2022-08-24T22:05:35.546Z,19.04
2022-08-24T22:10:36.404Z,19.05
2022-08-24T22:15:38.495Z,19.02
2022-08-24T22:20:39.271Z,18.89
2022-08-24T22:25:39.955Z,18.88
2022-08-24T22:30:43.083Z,18.79
2022-08-24T22:35:45.408Z,18.69
2022-08-24T22:40:46.466Z,18.71
2022-08-24T22:45:50.476Z,18.59
2022-08-24T22:50:51.158Z,18.54
2022-08-24T22:55:51.834Z,18.57
2022-08-24T23:00:54.098Z,18.54
2022-08-24T23:05:54.806Z,18.50
2022-08-24T23:10:55.492Z,18.46
2022-08-24T23:16:01.341Z,18.36
2022-08-24T23:21:02.093Z,18.34
2022-08-24T23:26:04.165Z,18.28
2022-08-24T23:31:08.087Z,18.19
2022-08-24T23:36:10.058Z,18.20
2022-08-24T23:41:14.394Z,18.12
2022-08-24T23:46:17.975Z,18.18
2022-08-24T23:51:20.763Z,18.10
2022-08-24T23:56:26.052Z,18.04
